sensor_id;sensor_type;location;lat;lon;timestamp;temperature;humidity
13488;DHT22;6816;48.506;9.050;2023-04-07T00:01:30;9.10;90.60
13488;DHT22;6816;48.506;9.050;2023-04-07T00:04:31;9.10;90.70
13488;DHT22;6816;48.506;9.050;2023-04-07T00:07:32;9.10;90.80
13488;DHT22;6816;48.506;9.050;2023-04-07T00:10:33;9.10;90.90
13488;DHT22;6816;48.506;9.050;2023-04-07T00:13:34;9.10;91.00
13488;DHT22;6816;48.506;9.050;2023-04-07T00:16:34;9.10;91.10
13488;DHT22;6816;48.506;9.050;2023-04-07T00:19:35;9.10;91.30
13488;DHT22;6816;48.506;9.050;2023-04-07T00:22:36;9.10;91.40
13488;DHT22;6816;48.506;9.050;2023-04-07T00:25:37;9.10;91.50
13488;DHT22;6816;48.506;9.050;2023-04-07T00:28:37;9.10;91.60
13488;DHT22;6816;48.506;9.050;2023-04-07T00:31:38;9.00;91.50
13488;DHT22;6816;48.506;9.050;2023-04-07T00:34:38;9.00;91.50
13488;DHT22;6816;48.506;9.050;2023-04-07T00:37:39;9.10;91.60
13488;DHT22;6816;48.506;9.050;2023-04-07T00:40:40;9.10;91.60
13488;DHT22;6816;48.506;9.050;2023-04-07T00:43:41;9.00;91.70
13488;DHT22;6816;48.506;9.050;2023-04-07T00:46:41;9.00;91.70
13488;DHT22;6816;48.506;9.050;2023-04-07T00:49:42;9.00;91.80
13488;DHT22;6816;48.506;9.050;2023-04-07T00:52:43;9.00;91.90
13488;DHT22;6816;48.506;9.050;2023-04-07T00:55:44;9.00;92.00
13488;DHT22;6816;48.506;9.050;2023-04-07T00:58:45;8.90;92.10
13488;DHT22;6816;48.506;9.050;2023-04-07T01:01:57;9.00;92.20
13488;DHT22;6816;48.506;9.050;2023-04-07T01:05:17;9.00;92.20
13488;DHT22;6816;48.506;9.050;2023-04-07T01:08:29;8.90;92.20
13488;DHT22;6816;48.506;9.050;2023-04-07T01:11:47;8.90;92.30
13488;DHT22;6816;48.506;9.050;2023-04-07T01:14:53;9.00;92.40
13488;DHT22;6816;48.506;9.050;2023-04-07T01:18:00;8.90;92.60
13488;DHT22;6816;48.506;9.050;2023-04-07T01:21:06;8.90;92.70
13488;DHT22;6816;48.506;9.050;2023-04-07T01:27:22;8.90;92.80
13488;DHT22;6816;48.506;9.050;2023-04-07T01:30:27;8.90;92.80
13488;DHT22;6816;48.506;9.050;2023-04-07T01:33:30;8.90;93.00
13488;DHT22;6816;48.506;9.050;2023-04-07T01:36:32;8.80;93.10
13488;DHT22;6816;48.506;9.050;2023-04-07T01:39:34;9.00;93.20
13488;DHT22;6816;48.506;9.050;2023-04-07T01:42:37;8.80;93.20
13488;DHT22;6816;48.506;9.050;2023-04-07T01:45:38;9.00;93.30
13488;DHT22;6816;48.506;9.050;2023-04-07T01:48:41;9.00;93.40
13488;DHT22;6816;48.506;9.050;2023-04-07T01:51:42;8.90;93.40
13488;DHT22;6816;48.506;9.050;2023-04-07T01:54:44;8.80;93.50
13488;DHT22;6816;48.506;9.050;2023-04-07T01:57:45;8.80;93.50
13488;DHT22;6816;48.506;9.050;2023-04-07T02:00:45;8.90;93.60
13488;DHT22;6816;48.506;9.050;2023-04-07T02:04:04;8.80;93.60
13488;DHT22;6816;48.506;9.050;2023-04-07T02:07:17;8.90;93.60
13488;DHT22;6816;48.506;9.050;2023-04-07T02:10:21;8.90;93.70
13488;DHT22;6816;48.506;9.050;2023-04-07T02:13:23;8.80;93.80
13488;DHT22;6816;48.506;9.050;2023-04-07T02:16:24;8.80;94.00
13488;DHT22;6816;48.506;9.050;2023-04-07T02:19:26;8.80;94.10
13488;DHT22;6816;48.506;9.050;2023-04-07T02:22:28;8.80;94.10
13488;DHT22;6816;48.506;9.050;2023-04-07T02:25:30;8.80;94.20
13488;DHT22;6816;48.506;9.050;2023-04-07T02:28:31;8.80;94.20
13488;DHT22;6816;48.506;9.050;2023-04-07T02:31:32;8.80;94.30
13488;DHT22;6816;48.506;9.050;2023-04-07T02:34:32;8.80;94.40
13488;DHT22;6816;48.506;9.050;2023-04-07T02:37:33;8.80;94.40
13488;DHT22;6816;48.506;9.050;2023-04-07T02:40:34;8.80;94.50
13488;DHT22;6816;48.506;9.050;2023-04-07T02:43:35;8.80;94.50
13488;DHT22;6816;48.506;9.050;2023-04-07T02:46:36;8.90;94.60
13488;DHT22;6816;48.506;9.050;2023-04-07T02:49:37;8.90;94.60
13488;DHT22;6816;48.506;9.050;2023-04-07T02:52:37;8.90;94.70
13488;DHT22;6816;48.506;9.050;2023-04-07T02:55:38;8.90;94.70
13488;DHT22;6816;48.506;9.050;2023-04-07T02:58:38;8.90;94.80
13488;DHT22;6816;48.506;9.050;2023-04-07T03:01:39;8.90;94.80
13488;DHT22;6816;48.506;9.050;2023-04-07T03:04:40;8.90;94.90
13488;DHT22;6816;48.506;9.050;2023-04-07T03:07:41;8.90;95.00
13488;DHT22;6816;48.506;9.050;2023-04-07T03:10:41;9.00;95.10
13488;DHT22;6816;48.506;9.050;2023-04-07T03:13:43;9.00;95.10
13488;DHT22;6816;48.506;9.050;2023-04-07T03:16:43;8.90;95.10
13488;DHT22;6816;48.506;9.050;2023-04-07T03:19:44;9.00;95.10
13488;DHT22;6816;48.506;9.050;2023-04-07T03:22:46;8.90;95.40
13488;DHT22;6816;48.506;9.050;2023-04-07T03:25:47;8.90;95.50
13488;DHT22;6816;48.506;9.050;2023-04-07T03:28:47;8.90;95.20
13488;DHT22;6816;48.506;9.050;2023-04-07T03:31:48;8.80;95.10
13488;DHT22;6816;48.506;9.050;2023-04-07T03:34:49;8.80;95.50
13488;DHT22;6816;48.506;9.050;2023-04-07T03:37:49;8.80;95.20
13488;DHT22;6816;48.506;9.050;2023-04-07T03:40:50;9.10;95.30
13488;DHT22;6816;48.506;9.050;2023-04-07T03:43:50;8.90;95.30
13488;DHT22;6816;48.506;9.050;2023-04-07T03:46:51;8.80;95.20
13488;DHT22;6816;48.506;9.050;2023-04-07T03:49:53;8.80;95.30
13488;DHT22;6816;48.506;9.050;2023-04-07T03:52:53;8.80;95.30
13488;DHT22;6816;48.506;9.050;2023-04-07T03:55:54;8.80;95.40
13488;DHT22;6816;48.506;9.050;2023-04-07T03:58:55;8.70;95.40
13488;DHT22;6816;48.506;9.050;2023-04-07T04:01:55;8.70;95.40
13488;DHT22;6816;48.506;9.050;2023-04-07T04:04:56;8.70;95.50
13488;DHT22;6816;48.506;9.050;2023-04-07T04:07:57;8.60;95.50
13488;DHT22;6816;48.506;9.050;2023-04-07T04:10:57;8.60;95.50
13488;DHT22;6816;48.506;9.050;2023-04-07T04:13:58;8.60;95.60
13488;DHT22;6816;48.506;9.050;2023-04-07T04:16:59;8.60;95.70
13488;DHT22;6816;48.506;9.050;2023-04-07T04:20:00;8.60;95.70
13488;DHT22;6816;48.506;9.050;2023-04-07T04:23:00;8.60;95.70
13488;DHT22;6816;48.506;9.050;2023-04-07T04:26:01;8.60;95.70
13488;DHT22;6816;48.506;9.050;2023-04-07T04:29:03;8.50;95.70
13488;DHT22;6816;48.506;9.050;2023-04-07T04:32:03;8.50;95.70
13488;DHT22;6816;48.506;9.050;2023-04-07T04:35:04;8.50;95.80
13488;DHT22;6816;48.506;9.050;2023-04-07T04:38:05;8.50;95.90
13488;DHT22;6816;48.506;9.050;2023-04-07T04:41:06;8.50;95.90
13488;DHT22;6816;48.506;9.050;2023-04-07T04:44:07;8.50;95.90
13488;DHT22;6816;48.506;9.050;2023-04-07T04:47:07;8.50;96.00
13488;DHT22;6816;48.506;9.050;2023-04-07T04:50:09;8.50;96.00
13488;DHT22;6816;48.506;9.050;2023-04-07T04:53:09;8.50;96.00
13488;DHT22;6816;48.506;9.050;2023-04-07T04:56:10;8.40;96.00
13488;DHT22;6816;48.506;9.050;2023-04-07T04:59:10;8.50;96.10
13488;DHT22;6816;48.506;9.050;2023-04-07T05:02:11;8.40;96.10
13488;DHT22;6816;48.506;9.050;2023-04-07T05:05:12;8.40;96.20
13488;DHT22;6816;48.506;9.050;2023-04-07T05:08:12;8.40;96.20
13488;DHT22;6816;48.506;9.050;2023-04-07T05:11:13;8.40;96.30
13488;DHT22;6816;48.506;9.050;2023-04-07T05:14:14;8.40;96.30
13488;DHT22;6816;48.506;9.050;2023-04-07T05:17:14;8.40;96.30
13488;DHT22;6816;48.506;9.050;2023-04-07T05:20:15;8.40;96.40
13488;DHT22;6816;48.506;9.050;2023-04-07T05:23:16;8.40;96.50
13488;DHT22;6816;48.506;9.050;2023-04-07T05:26:17;8.40;96.60
13488;DHT22;6816;48.506;9.050;2023-04-07T05:29:17;8.40;96.60
13488;DHT22;6816;48.506;9.050;2023-04-07T05:32:18;8.40;96.70
13488;DHT22;6816;48.506;9.050;2023-04-07T05:35:19;8.40;96.80
13488;DHT22;6816;48.506;9.050;2023-04-07T05:38:20;8.40;96.90
13488;DHT22;6816;48.506;9.050;2023-04-07T05:41:22;8.40;96.90
13488;DHT22;6816;48.506;9.050;2023-04-07T05:44:23;8.40;97.00
13488;DHT22;6816;48.506;9.050;2023-04-07T05:47:24;8.40;97.10
13488;DHT22;6816;48.506;9.050;2023-04-07T05:50:24;8.40;97.20
13488;DHT22;6816;48.506;9.050;2023-04-07T05:53:25;8.50;97.40
13488;DHT22;6816;48.506;9.050;2023-04-07T05:56:26;8.50;97.50
13488;DHT22;6816;48.506;9.050;2023-04-07T05:59:27;8.50;97.60
13488;DHT22;6816;48.506;9.050;2023-04-07T06:02:27;8.60;97.80
13488;DHT22;6816;48.506;9.050;2023-04-07T06:05:28;8.60;97.90
13488;DHT22;6816;48.506;9.050;2023-04-07T06:08:28;8.80;98.10
13488;DHT22;6816;48.506;9.050;2023-04-07T06:11:29;8.70;98.30
13488;DHT22;6816;48.506;9.050;2023-04-07T06:14:30;8.80;98.40
13488;DHT22;6816;48.506;9.050;2023-04-07T06:17:30;8.90;98.50
13488;DHT22;6816;48.506;9.050;2023-04-07T06:20:31;9.00;98.60
13488;DHT22;6816;48.506;9.050;2023-04-07T06:23:32;9.00;98.70
13488;DHT22;6816;48.506;9.050;2023-04-07T06:26:32;9.10;98.60
13488;DHT22;6816;48.506;9.050;2023-04-07T06:29:33;9.20;98.60
13488;DHT22;6816;48.506;9.050;2023-04-07T06:32:33;9.20;99.00
13488;DHT22;6816;48.506;9.050;2023-04-07T06:35:34;9.30;98.60
13488;DHT22;6816;48.506;9.050;2023-04-07T06:38:35;9.30;98.50
13488;DHT22;6816;48.506;9.050;2023-04-07T06:41:36;9.40;98.40
13488;DHT22;6816;48.506;9.050;2023-04-07T06:44:38;9.50;98.40
13488;DHT22;6816;48.506;9.050;2023-04-07T06:47:38;9.50;98.50
13488;DHT22;6816;48.506;9.050;2023-04-07T06:50:39;9.60;98.50
13488;DHT22;6816;48.506;9.050;2023-04-07T06:53:40;9.60;98.50
13488;DHT22;6816;48.506;9.050;2023-04-07T06:56:41;9.80;98.70
13488;DHT22;6816;48.506;9.050;2023-04-07T06:59:42;9.80;98.70
13488;DHT22;6816;48.506;9.050;2023-04-07T07:02:43;9.90;98.70
13488;DHT22;6816;48.506;9.050;2023-04-07T07:05:43;9.90;98.50
13488;DHT22;6816;48.506;9.050;2023-04-07T07:08:44;10.10;98.40
13488;DHT22;6816;48.506;9.050;2023-04-07T07:11:45;10.00;98.20
13488;DHT22;6816;48.506;9.050;2023-04-07T07:14:45;10.00;98.00
13488;DHT22;6816;48.506;9.050;2023-04-07T07:17:46;10.10;97.90
13488;DHT22;6816;48.506;9.050;2023-04-07T07:20:46;10.10;98.00
13488;DHT22;6816;48.506;9.050;2023-04-07T07:23:47;10.20;98.10
13488;DHT22;6816;48.506;9.050;2023-04-07T07:26:47;10.20;98.10
13488;DHT22;6816;48.506;9.050;2023-04-07T07:29:48;10.40;98.10
13488;DHT22;6816;48.506;9.050;2023-04-07T07:32:49;10.30;98.20
13488;DHT22;6816;48.506;9.050;2023-04-07T07:35:50;10.40;98.20
13488;DHT22;6816;48.506;9.050;2023-04-07T07:38:51;10.50;98.10
13488;DHT22;6816;48.506;9.050;2023-04-07T07:41:52;10.50;98.00
13488;DHT22;6816;48.506;9.050;2023-04-07T07:44:52;10.50;97.90
13488;DHT22;6816;48.506;9.050;2023-04-07T07:47:53;10.60;97.90
13488;DHT22;6816;48.506;9.050;2023-04-07T07:50:53;10.70;97.90
13488;DHT22;6816;48.506;9.050;2023-04-07T07:53:56;10.70;97.90
13488;DHT22;6816;48.506;9.050;2023-04-07T07:56:56;10.80;97.50
13488;DHT22;6816;48.506;9.050;2023-04-07T07:59:57;10.80;97.40
13488;DHT22;6816;48.506;9.050;2023-04-07T08:02:58;10.90;97.20
13488;DHT22;6816;48.506;9.050;2023-04-07T08:05:59;10.90;97.10
13488;DHT22;6816;48.506;9.050;2023-04-07T08:09:00;11.00;97.00
13488;DHT22;6816;48.506;9.050;2023-04-07T08:12:01;11.10;97.00
13488;DHT22;6816;48.506;9.050;2023-04-07T08:15:01;11.20;96.90
13488;DHT22;6816;48.506;9.050;2023-04-07T08:18:02;11.30;96.80
13488;DHT22;6816;48.506;9.050;2023-04-07T08:21:06;11.40;96.80
13488;DHT22;6816;48.506;9.050;2023-04-07T08:24:08;11.50;96.80
13488;DHT22;6816;48.506;9.050;2023-04-07T08:27:09;11.60;97.10
13488;DHT22;6816;48.506;9.050;2023-04-07T08:30:10;11.80;96.90
13488;DHT22;6816;48.506;9.050;2023-04-07T08:33:10;11.90;96.40
13488;DHT22;6816;48.506;9.050;2023-04-07T08:36:11;12.00;96.20
13488;DHT22;6816;48.506;9.050;2023-04-07T08:39:12;12.10;96.00
13488;DHT22;6816;48.506;9.050;2023-04-07T08:42:12;12.30;96.00
13488;DHT22;6816;48.506;9.050;2023-04-07T08:45:16;12.40;95.80
13488;DHT22;6816;48.506;9.050;2023-04-07T08:48:17;12.50;95.40
13488;DHT22;6816;48.506;9.050;2023-04-07T08:51:31;12.60;95.70
13488;DHT22;6816;48.506;9.050;2023-04-07T08:54:32;12.80;95.10
13488;DHT22;6816;48.506;9.050;2023-04-07T08:57:34;12.90;96.10
13488;DHT22;6816;48.506;9.050;2023-04-07T09:00:36;13.00;95.80
13488;DHT22;6816;48.506;9.050;2023-04-07T09:03:37;13.20;96.10
13488;DHT22;6816;48.506;9.050;2023-04-07T09:06:38;13.40;95.70
13488;DHT22;6816;48.506;9.050;2023-04-07T09:09:39;13.70;95.90
13488;DHT22;6816;48.506;9.050;2023-04-07T09:12:40;13.90;95.70
13488;DHT22;6816;48.506;9.050;2023-04-07T09:15:41;14.10;95.60
13488;DHT22;6816;48.506;9.050;2023-04-07T09:18:42;14.40;96.00
13488;DHT22;6816;48.506;9.050;2023-04-07T09:21:50;14.70;96.10
13488;DHT22;6816;48.506;9.050;2023-04-07T09:24:51;15.10;94.70
13488;DHT22;6816;48.506;9.050;2023-04-07T09:30:55;15.80;94.60
13488;DHT22;6816;48.506;9.050;2023-04-07T09:33:55;16.10;95.20
13488;DHT22;6816;48.506;9.050;2023-04-07T09:36:56;16.50;95.10
13488;DHT22;6816;48.506;9.050;2023-04-07T09:39:57;16.90;94.70
13488;DHT22;6816;48.506;9.050;2023-04-07T09:42:58;17.30;94.40
13488;DHT22;6816;48.506;9.050;2023-04-07T09:46:12;17.60;93.60
13488;DHT22;6816;48.506;9.050;2023-04-07T09:49:13;18.00;90.20
13488;DHT22;6816;48.506;9.050;2023-04-07T09:52:13;18.40;92.80
13488;DHT22;6816;48.506;9.050;2023-04-07T09:55:15;18.70;91.60
13488;DHT22;6816;48.506;9.050;2023-04-07T09:58:16;19.00;91.50
13488;DHT22;6816;48.506;9.050;2023-04-07T10:01:18;19.30;90.60
13488;DHT22;6816;48.506;9.050;2023-04-07T10:04:19;19.50;88.30
13488;DHT22;6816;48.506;9.050;2023-04-07T10:07:21;19.50;85.00
13488;DHT22;6816;48.506;9.050;2023-04-07T10:10:23;19.50;83.40
13488;DHT22;6816;48.506;9.050;2023-04-07T10:13:26;19.30;82.50
13488;DHT22;6816;48.506;9.050;2023-04-07T10:16:28;19.30;81.70
13488;DHT22;6816;48.506;9.050;2023-04-07T10:19:31;19.30;84.00
13488;DHT22;6816;48.506;9.050;2023-04-07T10:22:34;19.40;82.40
13488;DHT22;6816;48.506;9.050;2023-04-07T10:25:35;19.60;82.50
13488;DHT22;6816;48.506;9.050;2023-04-07T10:28:40;19.70;82.20
13488;DHT22;6816;48.506;9.050;2023-04-07T10:31:43;20.00;81.50
13488;DHT22;6816;48.506;9.050;2023-04-07T10:41:34;20.50;73.70
13488;DHT22;6816;48.506;9.050;2023-04-07T10:48:09;20.80;76.10
13488;DHT22;6816;48.506;9.050;2023-04-07T10:51:11;20.90;72.60
13488;DHT22;6816;48.506;9.050;2023-04-07T10:54:15;21.00;77.70
13488;DHT22;6816;48.506;9.050;2023-04-07T10:57:16;21.10;76.90
13488;DHT22;6816;48.506;9.050;2023-04-07T11:00:18;21.10;75.40
13488;DHT22;6816;48.506;9.050;2023-04-07T11:03:18;21.10;75.10
13488;DHT22;6816;48.506;9.050;2023-04-07T11:06:19;21.00;73.00
13488;DHT22;6816;48.506;9.050;2023-04-07T11:09:19;20.80;72.80
13488;DHT22;6816;48.506;9.050;2023-04-07T11:12:23;20.50;71.90
13488;DHT22;6816;48.506;9.050;2023-04-07T11:15:24;20.20;70.40
13488;DHT22;6816;48.506;9.050;2023-04-07T11:18:25;19.80;71.30
13488;DHT22;6816;48.506;9.050;2023-04-07T11:21:25;19.40;70.90
13488;DHT22;6816;48.506;9.050;2023-04-07T11:24:33;19.00;71.10
13488;DHT22;6816;48.506;9.050;2023-04-07T11:27:34;18.60;68.80
13488;DHT22;6816;48.506;9.050;2023-04-07T11:30:35;18.30;71.60
13488;DHT22;6816;48.506;9.050;2023-04-07T11:33:38;17.90;71.90
13488;DHT22;6816;48.506;9.050;2023-04-07T11:36:40;17.60;72.00
13488;DHT22;6816;48.506;9.050;2023-04-07T11:39:41;17.30;71.60
13488;DHT22;6816;48.506;9.050;2023-04-07T11:42:41;17.00;72.40
13488;DHT22;6816;48.506;9.050;2023-04-07T11:45:46;16.70;72.50
13488;DHT22;6816;48.506;9.050;2023-04-07T11:48:47;16.40;72.70
13488;DHT22;6816;48.506;9.050;2023-04-07T11:51:48;16.10;73.50
13488;DHT22;6816;48.506;9.050;2023-04-07T11:54:48;15.90;74.70
13488;DHT22;6816;48.506;9.050;2023-04-07T11:57:50;15.60;76.00
13488;DHT22;6816;48.506;9.050;2023-04-07T12:00:56;15.20;78.00
13488;DHT22;6816;48.506;9.050;2023-04-07T12:04:01;14.90;79.90
13488;DHT22;6816;48.506;9.050;2023-04-07T12:07:07;14.50;82.40
13488;DHT22;6816;48.506;9.050;2023-04-07T12:10:18;14.10;84.40
13488;DHT22;6816;48.506;9.050;2023-04-07T12:13:19;13.80;86.20
13488;DHT22;6816;48.506;9.050;2023-04-07T12:16:20;13.50;87.40
13488;DHT22;6816;48.506;9.050;2023-04-07T12:19:22;13.20;89.60
13488;DHT22;6816;48.506;9.050;2023-04-07T12:22:23;13.00;90.10
13488;DHT22;6816;48.506;9.050;2023-04-07T12:25:23;12.80;90.70
13488;DHT22;6816;48.506;9.050;2023-04-07T12:28:24;12.60;91.40
13488;DHT22;6816;48.506;9.050;2023-04-07T12:31:25;12.50;92.10
13488;DHT22;6816;48.506;9.050;2023-04-07T12:34:27;12.40;92.90
13488;DHT22;6816;48.506;9.050;2023-04-07T12:37:27;12.40;93.50
13488;DHT22;6816;48.506;9.050;2023-04-07T12:40:28;12.40;94.20
13488;DHT22;6816;48.506;9.050;2023-04-07T12:43:29;12.40;94.70
13488;DHT22;6816;48.506;9.050;2023-04-07T12:46:30;12.40;95.50
13488;DHT22;6816;48.506;9.050;2023-04-07T12:49:31;12.50;96.20
13488;DHT22;6816;48.506;9.050;2023-04-07T12:52:31;12.70;96.80
13488;DHT22;6816;48.506;9.050;2023-04-07T12:55:32;12.60;97.40
13488;DHT22;6816;48.506;9.050;2023-04-07T12:58:34;12.70;98.20
13488;DHT22;6816;48.506;9.050;2023-04-07T13:01:35;12.70;98.20
13488;DHT22;6816;48.506;9.050;2023-04-07T13:04:36;12.80;98.20
13488;DHT22;6816;48.506;9.050;2023-04-07T13:07:39;12.90;97.80
13488;DHT22;6816;48.506;9.050;2023-04-07T13:10:40;12.80;98.20
13488;DHT22;6816;48.506;9.050;2023-04-07T13:13:41;12.90;98.90
13488;DHT22;6816;48.506;9.050;2023-04-07T13:16:41;13.00;99.50
13488;DHT22;6816;48.506;9.050;2023-04-07T13:19:42;13.10;99.90
13488;DHT22;6816;48.506;9.050;2023-04-07T13:22:46;13.10;99.30
13488;DHT22;6816;48.506;9.050;2023-04-07T13:25:47;13.10;99.50
13488;DHT22;6816;48.506;9.050;2023-04-07T13:28:48;13.20;99.70
13488;DHT22;6816;48.506;9.050;2023-04-07T13:31:48;13.10;99.90
13488;DHT22;6816;48.506;9.050;2023-04-07T13:34:50;13.20;99.90
13488;DHT22;6816;48.506;9.050;2023-04-07T13:37:50;13.20;99.90
13488;DHT22;6816;48.506;9.050;2023-04-07T13:40:51;13.30;99.90
13488;DHT22;6816;48.506;9.050;2023-04-07T13:43:51;13.30;99.90
13488;DHT22;6816;48.506;9.050;2023-04-07T13:46:52;13.30;99.90
13488;DHT22;6816;48.506;9.050;2023-04-07T13:49:53;13.40;99.90
13488;DHT22;6816;48.506;9.050;2023-04-07T13:52:54;13.40;99.90
13488;DHT22;6816;48.506;9.050;2023-04-07T13:55:54;13.60;99.90
13488;DHT22;6816;48.506;9.050;2023-04-07T13:58:55;13.50;99.90
13488;DHT22;6816;48.506;9.050;2023-04-07T14:01:56;13.50;99.90
13488;DHT22;6816;48.506;9.050;2023-04-07T14:04:56;13.60;99.90
13488;DHT22;6816;48.506;9.050;2023-04-07T14:07:57;13.70;99.90
13488;DHT22;6816;48.506;9.050;2023-04-07T14:10:57;13.70;99.90
13488;DHT22;6816;48.506;9.050;2023-04-07T14:13:58;13.80;99.90
13488;DHT22;6816;48.506;9.050;2023-04-07T14:16:59;13.90;99.90
13488;DHT22;6816;48.506;9.050;2023-04-07T14:19:59;14.00;99.90
13488;DHT22;6816;48.506;9.050;2023-04-07T14:23:00;14.00;99.90
13488;DHT22;6816;48.506;9.050;2023-04-07T14:26:01;14.30;99.90
13488;DHT22;6816;48.506;9.050;2023-04-07T14:29:01;14.20;99.90
13488;DHT22;6816;48.506;9.050;2023-04-07T14:32:03;14.30;99.90
13488;DHT22;6816;48.506;9.050;2023-04-07T14:35:03;14.40;99.90
13488;DHT22;6816;48.506;9.050;2023-04-07T14:38:04;14.50;99.90
13488;DHT22;6816;48.506;9.050;2023-04-07T14:41:05;14.50;99.90
13488;DHT22;6816;48.506;9.050;2023-04-07T14:44:06;14.60;99.90
13488;DHT22;6816;48.506;9.050;2023-04-07T14:47:07;14.60;99.90
13488;DHT22;6816;48.506;9.050;2023-04-07T14:50:07;14.70;99.90
13488;DHT22;6816;48.506;9.050;2023-04-07T14:53:08;14.70;99.90
13488;DHT22;6816;48.506;9.050;2023-04-07T14:56:09;14.80;99.90
13488;DHT22;6816;48.506;9.050;2023-04-07T14:59:09;14.80;99.90
13488;DHT22;6816;48.506;9.050;2023-04-07T15:02:11;14.80;99.90
13488;DHT22;6816;48.506;9.050;2023-04-07T15:05:11;14.90;99.90
13488;DHT22;6816;48.506;9.050;2023-04-07T15:08:12;14.90;99.90
13488;DHT22;6816;48.506;9.050;2023-04-07T15:11:13;14.80;99.60
13488;DHT22;6816;48.506;9.050;2023-04-07T15:14:13;14.80;99.50
13488;DHT22;6816;48.506;9.050;2023-04-07T15:17:14;14.80;99.20
13488;DHT22;6816;48.506;9.050;2023-04-07T15:20:15;14.80;99.70
13488;DHT22;6816;48.506;9.050;2023-04-07T15:23:15;14.80;99.90
13488;DHT22;6816;48.506;9.050;2023-04-07T15:26:16;14.80;99.70
13488;DHT22;6816;48.506;9.050;2023-04-07T15:29:17;14.80;99.40
13488;DHT22;6816;48.506;9.050;2023-04-07T15:32:17;14.80;99.30
13488;DHT22;6816;48.506;9.050;2023-04-07T15:35:18;14.80;99.70
13488;DHT22;6816;48.506;9.050;2023-04-07T15:38:18;14.80;99.60
13488;DHT22;6816;48.506;9.050;2023-04-07T15:41:19;14.80;99.10
13488;DHT22;6816;48.506;9.050;2023-04-07T15:44:20;14.70;98.70
13488;DHT22;6816;48.506;9.050;2023-04-07T15:47:20;14.70;99.10
13488;DHT22;6816;48.506;9.050;2023-04-07T15:50:21;14.70;99.10
13488;DHT22;6816;48.506;9.050;2023-04-07T15:53:22;14.80;99.40
13488;DHT22;6816;48.506;9.050;2023-04-07T15:56:23;14.70;99.20
13488;DHT22;6816;48.506;9.050;2023-04-07T15:59:24;14.70;99.30
13488;DHT22;6816;48.506;9.050;2023-04-07T16:02:24;14.70;99.20
13488;DHT22;6816;48.506;9.050;2023-04-07T16:05:25;14.70;98.80
13488;DHT22;6816;48.506;9.050;2023-04-07T16:08:25;14.60;98.80
13488;DHT22;6816;48.506;9.050;2023-04-07T16:11:26;14.60;98.50
13488;DHT22;6816;48.506;9.050;2023-04-07T16:14:26;14.50;98.30
13488;DHT22;6816;48.506;9.050;2023-04-07T16:17:28;14.40;97.90
13488;DHT22;6816;48.506;9.050;2023-04-07T16:20:29;14.40;97.90
13488;DHT22;6816;48.506;9.050;2023-04-07T16:23:29;14.30;97.50
13488;DHT22;6816;48.506;9.050;2023-04-07T16:26:30;14.10;97.20
13488;DHT22;6816;48.506;9.050;2023-04-07T16:29:31;14.10;97.00
13488;DHT22;6816;48.506;9.050;2023-04-07T16:32:33;13.90;97.40
13488;DHT22;6816;48.506;9.050;2023-04-07T16:35:33;13.80;96.90
13488;DHT22;6816;48.506;9.050;2023-04-07T16:38:34;13.70;96.90
13488;DHT22;6816;48.506;9.050;2023-04-07T16:41:34;13.50;96.80
13488;DHT22;6816;48.506;9.050;2023-04-07T16:44:35;13.40;96.90
13488;DHT22;6816;48.506;9.050;2023-04-07T16:47:36;13.20;97.10
13488;DHT22;6816;48.506;9.050;2023-04-07T16:50:40;13.10;97.10
13488;DHT22;6816;48.506;9.050;2023-04-07T16:53:42;13.00;96.60
13488;DHT22;6816;48.506;9.050;2023-04-07T16:56:42;12.80;97.20
13488;DHT22;6816;48.506;9.050;2023-04-07T16:59:43;12.70;97.50
13488;DHT22;6816;48.506;9.050;2023-04-07T17:02:44;12.50;97.70
13488;DHT22;6816;48.506;9.050;2023-04-07T17:05:44;12.40;97.80
13488;DHT22;6816;48.506;9.050;2023-04-07T17:08:46;12.30;98.40
13488;DHT22;6816;48.506;9.050;2023-04-07T17:11:49;12.20;98.30
13488;DHT22;6816;48.506;9.050;2023-04-07T17:14:49;12.10;98.30
13488;DHT22;6816;48.506;9.050;2023-04-07T17:17:50;12.00;98.70
13488;DHT22;6816;48.506;9.050;2023-04-07T17:20:51;12.00;98.90
13488;DHT22;6816;48.506;9.050;2023-04-07T17:23:51;11.90;99.00
13488;DHT22;6816;48.506;9.050;2023-04-07T17:26:52;11.80;99.10
13488;DHT22;6816;48.506;9.050;2023-04-07T17:29:52;11.70;99.30
13488;DHT22;6816;48.506;9.050;2023-04-07T17:32:53;11.70;99.60
13488;DHT22;6816;48.506;9.050;2023-04-07T17:35:54;11.60;99.90
13488;DHT22;6816;48.506;9.050;2023-04-07T17:38:55;11.60;99.90
13488;DHT22;6816;48.506;9.050;2023-04-07T17:41:55;11.50;99.90
13488;DHT22;6816;48.506;9.050;2023-04-07T17:44:56;11.40;99.90
13488;DHT22;6816;48.506;9.050;2023-04-07T17:47:59;11.40;99.90
13488;DHT22;6816;48.506;9.050;2023-04-07T17:51:03;11.30;99.90
13488;DHT22;6816;48.506;9.050;2023-04-07T17:54:03;11.30;99.90
13488;DHT22;6816;48.506;9.050;2023-04-07T17:57:04;11.20;99.90
13488;DHT22;6816;48.506;9.050;2023-04-07T18:00:06;11.30;99.90
13488;DHT22;6816;48.506;9.050;2023-04-07T18:03:07;11.10;99.90
13488;DHT22;6816;48.506;9.050;2023-04-07T18:06:07;11.20;99.90
13488;DHT22;6816;48.506;9.050;2023-04-07T18:09:08;11.00;99.90
13488;DHT22;6816;48.506;9.050;2023-04-07T18:12:09;11.00;99.90
13488;DHT22;6816;48.506;9.050;2023-04-07T18:15:10;11.00;99.90
13488;DHT22;6816;48.506;9.050;2023-04-07T18:18:11;10.90;99.90
13488;DHT22;6816;48.506;9.050;2023-04-07T18:21:11;10.90;99.90
13488;DHT22;6816;48.506;9.050;2023-04-07T18:24:12;10.90;99.90
13488;DHT22;6816;48.506;9.050;2023-04-07T18:27:13;10.90;99.90
13488;DHT22;6816;48.506;9.050;2023-04-07T18:30:13;10.90;99.90
13488;DHT22;6816;48.506;9.050;2023-04-07T18:33:14;10.90;99.90
13488;DHT22;6816;48.506;9.050;2023-04-07T18:36:14;10.80;99.90
13488;DHT22;6816;48.506;9.050;2023-04-07T18:39:15;10.80;99.90
13488;DHT22;6816;48.506;9.050;2023-04-07T18:42:16;10.80;99.90
13488;DHT22;6816;48.506;9.050;2023-04-07T18:45:17;10.80;99.90
13488;DHT22;6816;48.506;9.050;2023-04-07T18:48:18;10.90;99.90
13488;DHT22;6816;48.506;9.050;2023-04-07T18:51:19;10.80;99.90
13488;DHT22;6816;48.506;9.050;2023-04-07T18:54:19;10.80;99.90
13488;DHT22;6816;48.506;9.050;2023-04-07T18:57:20;10.80;99.90
13488;DHT22;6816;48.506;9.050;2023-04-07T19:00:21;10.90;99.90
13488;DHT22;6816;48.506;9.050;2023-04-07T19:03:21;10.80;99.90
13488;DHT22;6816;48.506;9.050;2023-04-07T19:06:22;10.80;99.90
13488;DHT22;6816;48.506;9.050;2023-04-07T19:09:22;10.80;99.90
13488;DHT22;6816;48.506;9.050;2023-04-07T19:12:23;10.80;99.90
13488;DHT22;6816;48.506;9.050;2023-04-07T19:15:24;11.00;99.90
13488;DHT22;6816;48.506;9.050;2023-04-07T19:18:25;10.80;99.90
13488;DHT22;6816;48.506;9.050;2023-04-07T19:21:27;10.90;99.90
13488;DHT22;6816;48.506;9.050;2023-04-07T19:24:28;10.80;99.90
13488;DHT22;6816;48.506;9.050;2023-04-07T19:27:28;10.90;99.90
13488;DHT22;6816;48.506;9.050;2023-04-07T19:30:29;10.90;99.90
13488;DHT22;6816;48.506;9.050;2023-04-07T19:33:30;10.90;99.90
13488;DHT22;6816;48.506;9.050;2023-04-07T19:36:30;10.80;99.90
13488;DHT22;6816;48.506;9.050;2023-04-07T19:39:32;10.80;99.90
13488;DHT22;6816;48.506;9.050;2023-04-07T19:42:34;11.00;99.90
13488;DHT22;6816;48.506;9.050;2023-04-07T19:45:35;10.80;99.90
13488;DHT22;6816;48.506;9.050;2023-04-07T19:48:36;10.80;99.90